createdAt,value
2018-08-30T00:02:22.141Z,8.43
2018-08-30T00:04:51.449Z,8.05
2018-08-30T00:07:20.381Z,7.90
2018-08-30T00:09:49.387Z,7.65
2018-08-30T00:12:18.359Z,7.90
2018-08-30T00:14:47.367Z,8.68
2018-08-30T00:17:16.359Z,8.18
2018-08-30T00:19:45.322Z,8.08
2018-08-30T00:22:14.401Z,7.97
2018-08-30T00:24:43.457Z,8.30
2018-08-30T00:27:12.431Z,7.70
2018-08-30T00:29:41.630Z,7.62
2018-08-30T00:32:10.931Z,8.08
2018-08-30T00:34:39.946Z,7.87
2018-08-30T00:37:08.989Z,8.25
2018-08-30T00:39:37.973Z,8.28
2018-08-30T00:42:07.209Z,8.45
2018-08-30T00:44:36.161Z,8.95
2018-08-30T00:47:05.444Z,8.03
2018-08-30T00:49:34.419Z,7.95
2018-08-30T00:52:03.381Z,8.23
2018-08-30T00:54:32.329Z,9.08
2018-08-30T00:57:01.344Z,7.55
2018-08-30T00:59:30.304Z,9.25
2018-08-30T01:01:59.293Z,8.63
2018-08-30T01:04:28.300Z,8.38
2018-08-30T01:06:57.251Z,9.13
2018-08-30T01:09:26.115Z,9.43
2018-08-30T01:11:55.014Z,9.78
2018-08-30T01:14:23.924Z,8.78
2018-08-30T01:16:52.817Z,8.53
2018-08-30T01:19:22.237Z,8.70
2018-08-30T01:21:51.231Z,9.65
2018-08-30T01:24:20.263Z,8.73
2018-08-30T01:26:50.058Z,9.58
2018-08-30T01:29:19.106Z,8.98
2018-08-30T01:31:48.582Z,9.60
2018-08-30T01:34:17.525Z,9.45
2018-08-30T01:36:46.651Z,9.48
2018-08-30T01:39:15.660Z,9.23
2018-08-30T01:41:44.728Z,9.13
2018-08-30T01:44:14.429Z,9.03
2018-08-30T01:46:43.418Z,9.80
2018-08-30T01:49:12.472Z,9.88
2018-08-30T01:51:41.444Z,9.45
2018-08-30T01:54:10.605Z,10.03
2018-08-30T01:56:39.666Z,9.55
2018-08-30T01:59:08.586Z,9.50
2018-08-30T02:01:37.606Z,10.55
2018-08-30T02:04:06.597Z,9.78
2018-08-30T02:06:35.630Z,10.32
2018-08-30T02:09:05.346Z,9.20
2018-08-30T02:11:35.006Z,8.90
2018-08-30T02:14:04.659Z,9.53
2018-08-30T02:16:33.608Z,10.28
2018-08-30T02:19:02.600Z,9.85
2018-08-30T02:21:31.597Z,9.80
2018-08-30T02:24:00.545Z,10.50
2018-08-30T02:26:30.081Z,10.13
2018-08-30T02:28:59.175Z,9.75
2018-08-30T02:31:28.175Z,10.75
2018-08-30T02:33:57.233Z,10.18
2018-08-30T02:36:26.169Z,10.18
2018-08-30T02:38:55.240Z,10.32
2018-08-30T02:41:24.157Z,9.75
2018-08-30T02:43:53.145Z,10.35
2018-08-30T02:46:22.496Z,12.85
2018-08-30T02:48:51.566Z,10.72
2018-08-30T02:51:20.503Z,10.90
2018-08-30T02:53:49.493Z,10.82
2018-08-30T02:56:18.484Z,10.45
2018-08-30T02:58:47.565Z,10.75
2018-08-30T03:01:16.518Z,11.85
2018-08-30T03:03:45.502Z,10.85
2018-08-30T03:06:14.573Z,11.00
2018-08-30T03:08:43.565Z,12.00
2018-08-30T03:11:12.619Z,11.60
2018-08-30T03:13:41.565Z,10.60
2018-08-30T03:16:10.558Z,10.98
2018-08-30T03:18:39.529Z,10.35
2018-08-30T03:21:08.651Z,10.48
2018-08-30T03:23:37.709Z,10.08
2018-08-30T03:26:07.429Z,10.35
2018-08-30T03:28:36.560Z,10.55
2018-08-30T03:31:06.146Z,11.12
2018-08-30T03:33:35.244Z,12.23
2018-08-30T03:36:04.567Z,11.22
2018-08-30T03:38:33.511Z,11.08
2018-08-30T03:41:02.591Z,10.30
2018-08-30T03:43:31.538Z,10.63
2018-08-30T03:46:00.689Z,10.58
2018-08-30T03:48:29.638Z,10.78
2018-08-30T03:50:58.624Z,11.70
2018-08-30T03:53:27.674Z,11.15
2018-08-30T03:55:57.005Z,11.15
2018-08-30T03:58:26.304Z,11.18
2018-08-30T04:00:55.294Z,10.80
2018-08-30T04:03:24.428Z,11.48
2018-08-30T04:05:53.382Z,11.35
2018-08-30T04:08:22.330Z,11.97
2018-08-30T04:10:51.682Z,12.40
2018-08-30T04:13:20.630Z,13.88
2018-08-30T04:15:49.574Z,13.05
2018-08-30T04:18:18.762Z,13.13
2018-08-30T04:20:47.734Z,12.23
2018-08-30T04:23:16.755Z,12.18
2018-08-30T04:25:45.818Z,12.15
2018-08-30T04:28:14.774Z,12.80
2018-08-30T04:30:43.746Z,12.30
2018-08-30T04:33:13.043Z,13.05
2018-08-30T04:35:42.025Z,14.03
2018-08-30T04:38:10.997Z,13.93
2018-08-30T04:40:40.163Z,13.55
2018-08-30T04:43:09.295Z,14.10
2018-08-30T04:45:38.265Z,13.80
2018-08-30T04:48:07.185Z,13.38
2018-08-30T04:50:36.184Z,12.88
2018-08-30T04:53:05.346Z,13.10
2018-08-30T04:55:34.426Z,13.05
2018-08-30T04:58:03.419Z,14.20
2018-08-30T05:00:32.513Z,13.10
2018-08-30T05:03:01.587Z,13.88
2018-08-30T05:05:30.607Z,14.68
2018-08-30T05:07:59.543Z,14.23
2018-08-30T05:10:28.591Z,14.45
2018-08-30T05:12:57.560Z,14.58
2018-08-30T05:15:26.504Z,14.30
2018-08-30T05:17:55.800Z,14.40
2018-08-30T05:20:25.066Z,14.18
2018-08-30T05:22:54.135Z,14.93
2018-08-30T05:25:23.646Z,15.53
2018-08-30T05:27:52.732Z,14.40
2018-08-30T05:30:21.766Z,14.35
2018-08-30T05:32:50.878Z,15.03
2018-08-30T05:35:19.867Z,15.58
2018-08-30T05:37:49.232Z,14.73
2018-08-30T05:40:18.711Z,14.55
2018-08-30T05:42:47.716Z,13.88
2018-08-30T05:45:16.906Z,14.43
2018-08-30T05:47:45.898Z,15.85
2018-08-30T05:50:15.095Z,15.15
2018-08-30T05:52:44.089Z,14.63
2018-08-30T05:55:13.095Z,15.83
2018-08-30T05:57:42.152Z,15.98
2018-08-30T06:00:11.571Z,17.62
2018-08-30T06:02:40.561Z,17.82
2018-08-30T06:05:09.774Z,17.30
2018-08-30T06:07:38.988Z,17.92
2018-08-30T06:10:08.325Z,19.62
2018-08-30T06:12:37.525Z,17.80
2018-08-30T06:15:06.955Z,19.10
2018-08-30T06:17:36.380Z,20.30
2018-08-30T06:20:05.387Z,19.42
2018-08-30T06:22:34.523Z,20.50
2018-08-30T06:25:03.673Z,20.52
2018-08-30T06:27:32.762Z,21.15
2018-08-30T06:30:01.735Z,21.25
2018-08-30T06:32:31.036Z,22.02
2018-08-30T06:35:00.168Z,22.17
2018-08-30T06:37:29.540Z,22.58
2018-08-30T06:39:58.657Z,21.90
2018-08-30T06:42:27.720Z,23.32
2018-08-30T06:44:56.796Z,22.22
2018-08-30T06:47:25.874Z,22.95
2018-08-30T06:49:55.097Z,23.47
2018-08-30T06:52:24.076Z,24.32
2018-08-30T06:54:53.449Z,23.67
2018-08-30T06:57:22.512Z,23.47
2018-08-30T06:59:51.535Z,24.07
2018-08-30T07:02:20.512Z,23.98
2018-08-30T07:04:49.506Z,24.35
2018-08-30T07:07:18.453Z,24.67
2018-08-30T07:09:47.423Z,25.20
2018-08-30T07:12:16.782Z,24.15
2018-08-30T07:14:45.873Z,26.50
2018-08-30T07:17:15.155Z,27.42
2018-08-30T07:19:44.140Z,27.58
2018-08-30T07:22:13.112Z,26.30
2018-08-30T07:24:42.313Z,26.35
2018-08-30T07:27:11.353Z,26.35
2018-08-30T07:29:40.565Z,27.13
2018-08-30T07:32:09.525Z,26.70
2018-08-30T07:34:38.617Z,27.55
2018-08-30T07:37:07.709Z,27.30
2018-08-30T07:39:36.782Z,26.27
2018-08-30T07:42:06.408Z,28.77
2018-08-30T07:44:35.472Z,27.93
2018-08-30T07:47:05.223Z,28.38
2018-08-30T07:49:34.360Z,26.25
2018-08-30T07:52:03.348Z,26.73
2018-08-30T07:54:32.386Z,25.43
2018-08-30T07:57:01.489Z,23.83
2018-08-30T07:59:30.646Z,24.45
2018-08-30T08:01:59.648Z,23.47
2018-08-30T08:04:28.618Z,22.37
2018-08-30T08:06:57.802Z,21.37
2018-08-30T08:09:26.832Z,21.93
2018-08-30T08:11:56.023Z,20.75
2018-08-30T08:14:25.146Z,19.85
2018-08-30T08:16:54.220Z,19.30
2018-08-30T08:19:23.238Z,18.12
2018-08-30T08:21:52.290Z,18.92
2018-08-30T08:24:21.324Z,18.05
2018-08-30T08:26:50.344Z,17.65
2018-08-30T08:29:19.459Z,19.05
2018-08-30T08:31:48.615Z,17.45
2018-08-30T08:34:17.794Z,18.60
2018-08-30T08:36:46.924Z,18.25
2018-08-30T08:39:16.007Z,18.35
2018-08-30T08:41:45.049Z,19.02
2018-08-30T08:44:14.078Z,18.70
2018-08-30T08:46:43.111Z,19.65
2018-08-30T08:49:12.411Z,17.40
2018-08-30T08:51:41.886Z,19.05
2018-08-30T08:54:10.889Z,19.95
2018-08-30T08:56:39.900Z,21.70
2018-08-30T08:59:08.918Z,19.70
2018-08-30T09:01:38.099Z,18.87
2018-08-30T09:04:07.173Z,20.57
2018-08-30T09:06:36.244Z,20.57
2018-08-30T09:09:08.171Z,21.23
2018-08-30T09:11:37.241Z,20.43
2018-08-30T09:14:06.556Z,20.50
2018-08-30T09:16:35.919Z,20.80
2018-08-30T09:19:05.552Z,21.97
2018-08-30T09:21:34.849Z,21.80
2018-08-30T09:24:04.315Z,21.20
2018-08-30T09:26:33.338Z,22.20
2018-08-30T09:29:02.403Z,23.47
2018-08-30T09:31:31.379Z,22.98
2018-08-30T09:34:00.557Z,22.02
2018-08-30T09:36:29.681Z,22.30
2018-08-30T09:38:58.697Z,22.48
2018-08-30T09:41:27.725Z,22.25
2018-08-30T09:43:56.855Z,19.05
2018-08-30T09:46:25.811Z,16.07
2018-08-30T09:48:54.922Z,18.02
2018-08-30T09:51:23.994Z,17.12
2018-08-30T09:53:53.007Z,16.77
2018-08-30T09:56:22.196Z,14.90
2018-08-30T09:58:51.336Z,14.23
2018-08-30T10:01:25.728Z,14.53
2018-08-30T10:03:54.756Z,13.88
2018-08-30T10:06:24.052Z,14.05
2018-08-30T10:08:53.082Z,13.70
2018-08-30T10:11:22.303Z,13.25
2018-08-30T10:13:51.438Z,12.45
2018-08-30T10:16:20.452Z,12.98
2018-08-30T10:18:49.499Z,11.55
2018-08-30T10:21:18.568Z,11.57
2018-08-30T10:23:47.747Z,12.10
2018-08-30T10:26:16.922Z,10.85
2018-08-30T10:28:45.878Z,11.40
2018-08-30T10:31:15.238Z,11.33
2018-08-30T10:33:44.562Z,11.10
2018-08-30T10:36:13.811Z,11.60
2018-08-30T10:38:42.796Z,11.38
2018-08-30T10:41:11.834Z,11.45
2018-08-30T10:43:40.910Z,11.20
2018-08-30T10:46:10.090Z,11.40
2018-08-30T10:48:39.113Z,11.93
2018-08-30T10:51:08.177Z,11.57
2018-08-30T10:53:37.345Z,11.48
2018-08-30T10:56:07.094Z,11.33
2018-08-30T10:58:36.381Z,11.40
2018-08-30T11:01:06.181Z,12.68
2018-08-30T11:03:35.369Z,12.18
2018-08-30T11:06:05.245Z,12.40
2018-08-30T11:08:34.483Z,12.20
2018-08-30T11:11:03.415Z,8.58
2018-08-30T11:13:32.491Z,8.00
2018-08-30T11:16:01.691Z,8.28
2018-08-30T11:18:30.747Z,7.03
2018-08-30T11:21:00.036Z,6.25
2018-08-30T11:23:29.182Z,6.12
2018-08-30T11:25:58.137Z,5.97
2018-08-30T11:28:27.090Z,5.92
2018-08-30T11:30:56.056Z,6.60
2018-08-30T11:33:25.021Z,5.90
2018-08-30T11:35:54.035Z,6.67
2018-08-30T11:38:23.108Z,6.05
2018-08-30T11:40:52.074Z,6.75
2018-08-30T11:43:21.548Z,7.03
2018-08-30T11:45:50.782Z,7.08
2018-08-30T11:48:19.829Z,7.47
2018-08-30T11:50:49.022Z,7.20
2018-08-30T11:53:17.987Z,6.42
2018-08-30T11:55:47.096Z,6.42
2018-08-30T11:58:16.199Z,7.22
2018-08-30T12:00:45.629Z,7.03
2018-08-30T12:03:15.070Z,7.10
2018-08-30T12:05:44.440Z,7.25
2018-08-30T12:08:14.278Z,7.28
2018-08-30T12:10:43.699Z,7.42
2018-08-30T12:13:12.874Z,7.37
2018-08-30T12:15:41.988Z,6.92
2018-08-30T12:18:10.965Z,7.60
2018-08-30T12:20:40.179Z,7.35
2018-08-30T12:23:09.316Z,6.37
2018-08-30T12:25:38.287Z,6.40
2018-08-30T12:28:07.456Z,5.92
2018-08-30T12:30:36.600Z,6.08
2018-08-30T12:33:06.346Z,6.45
2018-08-30T12:35:35.803Z,6.08
2018-08-30T12:38:05.071Z,6.37
2018-08-30T12:40:34.286Z,6.03
2018-08-30T12:43:03.909Z,5.65
2018-08-30T12:45:32.696Z,5.47
2018-08-30T12:48:02.003Z,5.22
2018-08-30T12:50:31.419Z,5.35
2018-08-30T12:53:00.468Z,5.53
2018-08-30T12:55:29.630Z,6.55
2018-08-30T12:57:58.860Z,6.08
2018-08-30T13:00:28.053Z,6.55
2018-08-30T13:02:57.192Z,7.37
2018-08-30T13:05:26.588Z,7.53
2018-08-30T13:07:55.727Z,8.20
2018-08-30T13:10:25.415Z,9.08
2018-08-30T13:12:54.549Z,9.13
2018-08-30T13:15:30.587Z,8.83
2018-08-30T13:17:59.600Z,8.80
2018-08-30T13:20:29.124Z,9.50
2018-08-30T13:22:58.793Z,9.50
2018-08-30T13:25:28.311Z,9.98
2018-08-30T13:27:57.519Z,10.88
2018-08-30T13:30:26.786Z,10.05
2018-08-30T13:32:56.602Z,10.03
2018-08-30T13:35:25.858Z,9.93
2018-08-30T13:37:55.055Z,10.23
2018-08-30T13:40:24.175Z,11.05
2018-08-30T13:42:53.525Z,10.85
2018-08-30T13:45:23.307Z,11.80
2018-08-30T13:47:52.344Z,11.57
2018-08-30T13:50:21.598Z,11.40
2018-08-30T13:52:51.078Z,12.58
2018-08-30T13:55:20.411Z,11.78
2018-08-30T13:57:49.703Z,12.05
2018-08-30T14:00:19.165Z,12.73
2018-08-30T14:02:47.908Z,11.97
2018-08-30T14:05:17.548Z,12.10
2018-08-30T14:07:46.608Z,12.55
2018-08-30T14:10:16.085Z,12.68
2018-08-30T14:12:45.203Z,12.23
2018-08-30T14:15:14.557Z,11.80
2018-08-30T14:17:43.519Z,12.33
2018-08-30T14:20:12.985Z,11.50
2018-08-30T14:22:42.102Z,11.93
2018-08-30T14:25:11.279Z,11.75
2018-08-30T14:27:40.244Z,11.78
2018-08-30T14:30:09.362Z,12.25
2018-08-30T14:32:38.349Z,11.88
2018-08-30T14:35:07.392Z,11.50
2018-08-30T14:37:36.564Z,12.45
2018-08-30T14:40:06.014Z,12.43
2018-08-30T14:42:35.097Z,12.15
2018-08-30T14:45:04.710Z,12.50
2018-08-30T14:47:34.129Z,12.13
2018-08-30T14:50:03.253Z,12.05
2018-08-30T14:52:32.273Z,11.97
2018-08-30T14:55:01.544Z,12.78
2018-08-30T14:57:30.620Z,12.03
2018-08-30T14:59:59.633Z,12.13
2018-08-30T15:02:28.737Z,13.88
2018-08-30T15:04:57.850Z,12.40
2018-08-30T15:07:26.915Z,12.28
2018-08-30T15:09:56.013Z,13.18
2018-08-30T15:12:25.044Z,11.80
2018-08-30T15:14:54.205Z,11.60
2018-08-30T15:17:23.460Z,11.63
2018-08-30T15:19:52.737Z,11.33
2018-08-30T15:22:21.808Z,10.25
2018-08-30T15:24:50.862Z,8.38
2018-08-30T15:27:19.973Z,8.40
2018-08-30T15:29:49.481Z,8.15
2018-08-30T15:32:18.501Z,7.60
2018-08-30T15:34:47.669Z,7.40
2018-08-30T15:37:16.933Z,7.50
2018-08-30T15:39:45.986Z,7.28
2018-08-30T15:42:15.324Z,6.83
2018-08-30T15:44:44.546Z,7.05
2018-08-30T15:47:13.633Z,6.83
2018-08-30T15:49:42.770Z,7.35
2018-08-30T15:52:11.741Z,6.97
2018-08-30T15:54:40.819Z,6.80
2018-08-30T15:57:10.087Z,6.85
2018-08-30T15:59:39.408Z,6.40
2018-08-30T16:02:08.455Z,6.22
2018-08-30T16:04:37.445Z,6.15
2018-08-30T16:07:06.599Z,6.60
2018-08-30T16:09:35.580Z,6.42
2018-08-30T16:12:05.020Z,6.80
2018-08-30T16:14:33.988Z,6.83
2018-08-30T16:17:03.109Z,6.90
2018-08-30T16:19:32.357Z,7.95
2018-08-30T16:22:01.904Z,8.08
2018-08-30T16:24:31.124Z,8.65
2018-08-30T16:27:00.316Z,10.05
2018-08-30T16:29:29.264Z,9.58
2018-08-30T16:31:58.250Z,10.60
2018-08-30T16:34:27.644Z,11.65
2018-08-30T16:36:56.795Z,12.80
2018-08-30T16:39:25.821Z,13.22
2018-08-30T16:41:54.755Z,13.30
2018-08-30T16:44:23.934Z,14.55
2018-08-30T16:46:52.942Z,15.18
2018-08-30T16:49:21.960Z,14.58
2018-08-30T16:51:50.994Z,15.58
2018-08-30T16:54:20.092Z,15.13
2018-08-30T16:56:49.165Z,16.65
2018-08-30T16:59:18.174Z,17.77
2018-08-30T17:01:47.458Z,16.37
2018-08-30T17:04:16.695Z,15.55
2018-08-30T17:06:45.702Z,16.17
2018-08-30T17:09:14.754Z,14.68
2018-08-30T17:11:43.837Z,15.25
2018-08-30T17:14:12.868Z,15.53
2018-08-30T17:16:41.925Z,15.78
2018-08-30T17:19:18.311Z,16.02
2018-08-30T17:21:47.643Z,15.28
2018-08-30T17:24:16.697Z,14.73
2018-08-30T17:26:45.730Z,14.83
2018-08-30T17:29:14.995Z,13.68
2018-08-30T17:31:44.121Z,12.40
2018-08-30T17:34:13.082Z,12.05
2018-08-30T17:36:42.424Z,10.03
2018-08-30T17:39:12.095Z,10.63
2018-08-30T17:41:41.101Z,9.93
2018-08-30T17:44:10.492Z,10.03
2018-08-30T17:46:41.473Z,10.70
2018-08-30T17:49:10.464Z,12.25
2018-08-30T17:51:39.496Z,12.05
2018-08-30T17:54:08.466Z,12.15
2018-08-30T17:56:37.418Z,12.75
2018-08-30T17:59:06.677Z,12.07
2018-08-30T18:01:35.973Z,11.75
2018-08-30T18:04:05.142Z,10.72
2018-08-30T18:06:34.140Z,11.15
2018-08-30T18:09:03.831Z,10.35
2018-08-30T18:11:32.820Z,10.68
2018-08-30T18:14:02.285Z,10.48
2018-08-30T18:16:31.750Z,9.93
2018-08-30T18:19:00.850Z,10.95
2018-08-30T18:21:29.986Z,11.45
2018-08-30T18:23:59.426Z,10.82
2018-08-30T18:26:28.483Z,10.72
2018-08-30T18:28:57.827Z,10.55
2018-08-30T18:31:26.944Z,10.03
2018-08-30T18:33:55.953Z,11.15
2018-08-30T18:36:25.084Z,11.65
2018-08-30T18:38:54.232Z,11.05
2018-08-30T18:41:23.706Z,10.45
2018-08-30T18:43:52.660Z,10.93
2018-08-30T18:46:21.712Z,10.78
2018-08-30T18:48:51.147Z,9.83
2018-08-30T18:51:20.275Z,9.70
2018-08-30T18:53:49.264Z,9.83
2018-08-30T18:56:18.373Z,10.10
2018-08-30T18:58:47.432Z,9.83
2018-08-30T19:01:16.407Z,9.10
2018-08-30T19:03:45.398Z,10.10
2018-08-30T19:06:14.716Z,10.00
2018-08-30T19:08:43.733Z,9.48
2018-08-30T19:11:12.735Z,8.30
2018-08-30T19:13:41.729Z,9.30
2018-08-30T19:16:16.601Z,7.97
2018-08-30T19:18:50.899Z,8.18
2018-08-30T19:21:20.554Z,7.80
2018-08-30T19:23:49.501Z,8.83
2018-08-30T19:26:22.071Z,8.98
2018-08-30T19:28:51.528Z,8.13
2018-08-30T19:31:20.521Z,8.30
2018-08-30T19:33:49.546Z,8.15
2018-08-30T19:36:24.210Z,8.98
2018-08-30T19:38:53.336Z,8.23
2018-08-30T19:41:23.190Z,8.28
2018-08-30T19:43:53.224Z,9.38
2018-08-30T19:46:23.179Z,8.03
2018-08-30T19:48:52.235Z,8.45
2018-08-30T19:51:21.195Z,8.50
2018-08-30T19:53:50.210Z,8.05
2018-08-30T19:56:19.358Z,7.78
2018-08-30T19:58:48.340Z,7.97
2018-08-30T20:01:17.284Z,8.18
2018-08-30T20:03:46.278Z,7.70
2018-08-30T20:06:15.276Z,7.95
2018-08-30T20:08:44.244Z,7.78
2018-08-30T20:11:13.283Z,7.92
2018-08-30T20:13:42.222Z,7.35
2018-08-30T20:16:11.203Z,7.42
2018-08-30T20:18:40.184Z,7.67
2018-08-30T20:21:09.136Z,7.30
2018-08-30T20:23:38.192Z,7.62
2018-08-30T20:26:07.584Z,7.40
2018-08-30T20:28:36.540Z,7.40
2018-08-30T20:31:05.886Z,7.40
2018-08-30T20:33:34.894Z,6.75
2018-08-30T20:36:03.986Z,6.97
2018-08-30T20:38:33.480Z,7.40
2018-08-30T20:41:02.447Z,7.50
2018-08-30T20:43:31.594Z,7.60
2018-08-30T20:46:00.562Z,7.50
2018-08-30T20:48:29.552Z,7.50
2018-08-30T20:50:58.902Z,7.37
2018-08-30T20:53:27.892Z,7.20
2018-08-30T20:55:57.070Z,7.92
2018-08-30T20:58:26.137Z,7.30
2018-08-30T21:00:55.100Z,6.90
2018-08-30T21:03:24.082Z,7.70
2018-08-30T21:05:53.174Z,7.33
2018-08-30T21:08:22.418Z,7.45
2018-08-30T21:10:51.359Z,6.78
2018-08-30T21:13:20.320Z,7.17
2018-08-30T21:15:49.409Z,7.05
2018-08-30T21:18:18.378Z,6.78
2018-08-30T21:20:47.359Z,6.95
2018-08-30T21:23:16.785Z,6.37
2018-08-30T21:25:45.759Z,6.75
2018-08-30T21:28:14.807Z,6.10
2018-08-30T21:30:43.903Z,6.22
2018-08-30T21:33:12.990Z,6.10
2018-08-30T21:35:42.129Z,5.75
2018-08-30T21:38:11.124Z,6.05
2018-08-30T21:40:40.225Z,5.95
2018-08-30T21:43:09.837Z,5.37
2018-08-30T21:45:38.780Z,5.47
2018-08-30T21:48:08.169Z,5.60
2018-08-30T21:50:37.121Z,5.25
2018-08-30T21:53:06.079Z,5.60
2018-08-30T21:55:35.074Z,5.85
2018-08-30T21:58:04.024Z,4.95
2018-08-30T22:00:33.083Z,5.80
2018-08-30T22:03:02.021Z,6.00
2018-08-30T22:05:31.003Z,5.85
2018-08-30T22:08:00.012Z,5.78
2018-08-30T22:10:28.948Z,5.70
2018-08-30T22:12:57.886Z,5.08
2018-08-30T22:15:26.853Z,5.83
2018-08-30T22:17:55.870Z,5.55
2018-08-30T22:20:24.820Z,5.60
2018-08-30T22:22:53.812Z,5.78
2018-08-30T22:25:22.858Z,5.58
2018-08-30T22:27:51.846Z,5.67
2018-08-30T22:30:20.796Z,5.60
2018-08-30T22:32:49.693Z,5.65
2018-08-30T22:35:18.696Z,5.60
2018-08-30T22:37:47.818Z,6.00
2018-08-30T22:40:16.786Z,6.30
2018-08-30T22:42:45.891Z,5.80
2018-08-30T22:45:14.823Z,5.87
2018-08-30T22:47:43.764Z,5.62
2018-08-30T22:50:12.669Z,5.45
2018-08-30T22:52:41.627Z,5.78
2018-08-30T22:55:10.562Z,5.78
2018-08-30T22:57:39.575Z,5.47
2018-08-30T23:00:09.165Z,5.72
2018-08-30T23:02:38.134Z,4.28
2018-08-30T23:05:07.446Z,4.67
2018-08-30T23:07:36.379Z,4.37
2018-08-30T23:10:05.866Z,4.60
2018-08-30T23:12:34.922Z,4.83
2018-08-30T23:15:03.957Z,5.25
2018-08-30T23:17:32.892Z,4.83
2018-08-30T23:20:01.879Z,5.03
2018-08-30T23:22:30.792Z,5.40
2018-08-30T23:24:59.806Z,5.35
2018-08-30T23:27:28.730Z,5.12
2018-08-30T23:29:57.682Z,4.70
2018-08-30T23:32:26.620Z,4.92
2018-08-30T23:34:55.544Z,4.55
2018-08-30T23:37:24.500Z,5.30
2018-08-30T23:39:53.437Z,4.70
2018-08-30T23:42:22.367Z,5.08
2018-08-30T23:44:51.352Z,4.47
2018-08-30T23:47:20.573Z,4.33
2018-08-30T23:49:49.509Z,4.53
2018-08-30T23:52:18.484Z,4.85
2018-08-30T23:54:47.427Z,4.53
2018-08-30T23:57:16.490Z,4.55
2018-08-30T23:59:56.805Z,3.85
